createdAt,value
2019-02-02T00:03:57.649Z,27
2019-02-02T00:09:00.121Z,27
2019-02-02T00:14:02.564Z,27
2019-02-02T00:19:05.137Z,29
2019-02-02T00:24:07.488Z,19
2019-02-02T00:29:09.942Z,27
2019-02-02T00:34:12.401Z,25
2019-02-02T00:39:14.865Z,29
2019-02-02T00:44:17.351Z,28
2019-02-02T00:49:19.800Z,27
2019-02-02T00:54:22.260Z,28
2019-02-02T00:59:24.715Z,27
2019-02-02T01:04:27.155Z,28
2019-02-02T01:09:29.619Z,31
2019-02-02T01:14:32.118Z,34
2019-02-02T01:19:34.544Z,29
2019-02-02T01:24:37.098Z,31
2019-02-02T01:29:39.449Z,32
2019-02-02T01:34:41.903Z,30
2019-02-02T01:39:44.359Z,34
2019-02-02T01:44:46.821Z,34
2019-02-02T01:49:49.266Z,32
2019-02-02T01:54:51.738Z,31
2019-02-02T01:59:54.198Z,32
2019-02-02T02:04:56.654Z,31
2019-02-02T02:09:59.124Z,31
2019-02-02T02:15:01.739Z,31
2019-02-02T02:20:04.044Z,30
2019-02-02T02:25:06.502Z,32
2019-02-02T02:30:09.019Z,26
2019-02-02T02:35:11.407Z,27
2019-02-02T02:40:13.863Z,32
2019-02-02T02:45:16.376Z,31
2019-02-02T02:50:18.781Z,31
2019-02-02T02:55:21.245Z,31
2019-02-02T03:00:23.718Z,32
2019-02-02T03:05:26.167Z,35
2019-02-02T03:10:28.613Z,33
2019-02-02T03:15:31.079Z,33
2019-02-02T03:20:33.566Z,30
2019-02-02T03:25:36.038Z,30
2019-02-02T03:30:38.514Z,33
2019-02-02T03:35:40.967Z,30
2019-02-02T03:40:43.383Z,29
2019-02-02T03:45:45.891Z,31
2019-02-02T03:50:48.300Z,32
2019-02-02T03:55:50.760Z,33
2019-02-02T04:00:53.327Z,34
2019-02-02T04:05:55.687Z,33
2019-02-02T04:10:58.149Z,35
2019-02-02T04:16:00.616Z,36
2019-02-02T04:21:03.099Z,33
2019-02-02T04:26:05.525Z,34
2019-02-02T04:31:07.993Z,39
2019-02-02T04:36:10.454Z,35
2019-02-02T04:41:12.941Z,35
2019-02-02T04:46:15.381Z,37
2019-02-02T04:51:17.846Z,34
2019-02-02T04:56:20.335Z,36
2019-02-02T05:01:22.770Z,36
2019-02-02T05:06:25.226Z,37
2019-02-02T05:11:27.726Z,35
2019-02-02T05:16:30.178Z,38
2019-02-02T05:21:32.601Z,38
2019-02-02T05:26:35.138Z,39
2019-02-02T05:31:37.671Z,42
2019-02-02T05:36:40.000Z,40
2019-02-02T05:41:42.445Z,40
2019-02-02T05:46:44.952Z,42
2019-02-02T05:51:47.435Z,42
2019-02-02T05:56:49.856Z,43
2019-02-02T06:01:52.291Z,42
2019-02-02T06:06:54.821Z,42
2019-02-02T06:11:57.217Z,43
2019-02-02T06:16:59.723Z,43
2019-02-02T06:22:02.143Z,44
2019-02-02T06:27:04.708Z,41
2019-02-02T06:32:11.652Z,45
2019-02-02T06:37:09.531Z,45
2019-02-02T06:42:11.989Z,45
2019-02-02T06:47:14.458Z,47
2019-02-02T06:52:16.936Z,44
2019-02-02T06:57:19.423Z,45
2019-02-02T07:02:21.887Z,41
2019-02-02T07:07:24.319Z,46
2019-02-02T07:12:26.770Z,48
2019-02-02T07:17:29.265Z,46
2019-02-02T07:22:31.692Z,44
2019-02-02T07:27:34.218Z,47
2019-02-02T07:32:36.631Z,47
2019-02-02T07:37:39.094Z,46
2019-02-02T07:42:41.536Z,45
2019-02-02T07:47:44.021Z,44
2019-02-02T07:52:46.487Z,47
2019-02-02T07:57:48.941Z,44
2019-02-02T08:02:51.429Z,47
2019-02-02T08:07:53.851Z,45
2019-02-02T08:12:56.318Z,39
2019-02-02T08:17:58.815Z,40
2019-02-02T08:23:01.310Z,42
2019-02-02T08:28:03.728Z,43
2019-02-02T08:33:06.177Z,44
2019-02-02T08:38:08.643Z,43
2019-02-02T08:43:11.151Z,41
2019-02-02T08:48:13.562Z,37
2019-02-02T08:53:16.023Z,38
2019-02-02T08:58:18.567Z,41
2019-02-02T09:03:20.947Z,43
2019-02-02T09:08:23.444Z,48
2019-02-02T09:13:25.841Z,47
2019-02-02T09:18:28.348Z,46
2019-02-02T09:23:30.763Z,39
2019-02-02T09:28:33.233Z,37
2019-02-02T09:33:35.704Z,35
2019-02-02T09:38:38.162Z,36
2019-02-02T09:43:40.598Z,58
2019-02-02T09:48:43.042Z,38
2019-02-02T09:53:45.516Z,37
2019-02-02T09:58:48.038Z,39
2019-02-02T10:03:50.419Z,40
2019-02-02T10:08:52.884Z,35
2019-02-02T10:13:55.345Z,37
2019-02-02T10:18:57.785Z,35
2019-02-02T10:24:00.254Z,36
2019-02-02T10:29:02.703Z,34
2019-02-02T10:34:05.169Z,35
2019-02-02T10:39:07.620Z,33
2019-02-02T10:44:10.093Z,32
2019-02-02T10:49:12.538Z,33
2019-02-02T10:54:14.988Z,34
2019-02-02T10:59:17.496Z,33
2019-02-02T11:04:19.968Z,37
2019-02-02T11:09:22.488Z,36
2019-02-02T11:14:25.171Z,37
2019-02-02T11:19:27.324Z,37
2019-02-02T11:24:29.730Z,39
2019-02-02T11:29:32.289Z,37
2019-02-02T11:34:34.644Z,33
2019-02-02T11:39:37.103Z,41
2019-02-02T11:44:39.586Z,39
2019-02-02T11:49:42.109Z,41
2019-02-02T11:54:44.474Z,39
2019-02-02T11:59:46.931Z,39
2019-02-02T12:04:49.389Z,40
2019-02-02T12:09:51.980Z,37
2019-02-02T12:14:56.763Z,38
2019-02-02T12:19:56.762Z,36
2019-02-02T12:25:01.647Z,42
2019-02-02T12:30:06.980Z,42
2019-02-02T12:35:04.787Z,36
2019-02-02T12:40:06.595Z,41
2019-02-02T12:45:09.061Z,44
2019-02-02T12:50:11.509Z,46
2019-02-02T12:55:14.009Z,41
2019-02-02T13:00:16.426Z,37
2019-02-02T13:05:18.869Z,42
2019-02-02T13:10:24.116Z,37
2019-02-02T13:15:23.785Z,38
2019-02-02T13:20:26.242Z,36
2019-02-02T13:25:28.708Z,35
2019-02-02T13:30:31.196Z,35
2019-02-02T13:35:33.670Z,33
2019-02-02T13:40:36.072Z,37
2019-02-02T13:45:38.531Z,35
2019-02-02T13:50:41.026Z,32
2019-02-02T13:55:43.502Z,34
2019-02-02T14:00:45.907Z,37
2019-02-02T14:05:48.369Z,34
2019-02-02T14:10:50.855Z,34
2019-02-02T14:15:53.287Z,36
2019-02-02T14:20:55.755Z,37
2019-02-02T14:25:58.204Z,36
2019-02-02T14:31:00.681Z,36
2019-02-02T14:36:03.115Z,37
2019-02-02T14:41:05.565Z,34
2019-02-02T14:46:08.020Z,38
2019-02-02T14:51:10.514Z,39
2019-02-02T14:56:12.958Z,34
2019-02-02T15:01:15.417Z,33
2019-02-02T15:06:17.852Z,32
2019-02-02T15:11:20.310Z,32
2019-02-02T15:16:22.788Z,35
2019-02-02T15:21:25.225Z,41
2019-02-02T15:26:27.679Z,44
2019-02-02T15:31:30.143Z,41
2019-02-02T15:36:32.616Z,43
2019-02-02T15:41:35.121Z,42
2019-02-02T15:46:48.279Z,39
2019-02-02T15:51:40.605Z,39
2019-02-02T15:56:42.445Z,39
2019-02-02T16:01:44.985Z,35
2019-02-02T16:06:47.475Z,51
2019-02-02T16:11:49.830Z,41
2019-02-02T16:16:52.240Z,32
2019-02-02T16:21:54.704Z,34
2019-02-02T16:26:57.167Z,35
2019-02-02T16:31:59.779Z,42
2019-02-02T16:37:02.081Z,45
2019-02-02T16:42:04.543Z,50
2019-02-02T16:47:07.019Z,65
2019-02-02T16:52:09.471Z,42
2019-02-02T16:57:11.925Z,39
2019-02-02T17:02:14.370Z,35
2019-02-02T17:07:16.834Z,41
2019-02-02T17:12:19.295Z,35
2019-02-02T17:17:21.798Z,37
2019-02-02T17:22:24.241Z,36
2019-02-02T17:27:26.642Z,38
2019-02-02T17:32:29.106Z,37
2019-02-02T17:37:31.584Z,37
2019-02-02T17:42:34.021Z,44
2019-02-02T17:47:36.478Z,39
2019-02-02T17:52:38.958Z,49
2019-02-02T17:57:41.425Z,44
2019-02-02T18:02:43.876Z,42
2019-02-02T18:07:46.356Z,33
2019-02-02T18:12:48.783Z,34
2019-02-02T18:17:51.269Z,42
2019-02-02T18:22:53.755Z,38
2019-02-02T18:27:56.160Z,39
2019-02-02T18:32:58.604Z,53
2019-02-02T18:38:01.101Z,59
2019-02-02T18:43:03.512Z,49
2019-02-02T18:48:05.985Z,45
2019-02-02T18:53:08.477Z,55
2019-02-02T18:58:10.901Z,48
2019-02-02T19:03:13.389Z,44
2019-02-02T19:08:15.816Z,43
2019-02-02T19:13:18.270Z,41
2019-02-02T19:18:20.722Z,41
2019-02-02T19:23:24.965Z,38
2019-02-02T19:28:26.590Z,44
2019-02-02T19:33:28.123Z,41
2019-02-02T19:38:30.592Z,44
2019-02-02T19:43:33.021Z,40
2019-02-02T19:48:35.512Z,36
2019-02-02T19:53:38.098Z,30
2019-02-02T19:58:40.408Z,31
2019-02-02T20:03:42.882Z,28
2019-02-02T20:08:45.332Z,31
2019-02-02T20:13:47.896Z,29
2019-02-02T20:18:50.246Z,28
2019-02-02T20:23:52.700Z,38
2019-02-02T20:33:57.611Z,31
2019-02-02T20:39:00.066Z,35
2019-02-02T20:44:02.552Z,42
2019-02-02T20:49:07.640Z,43
2019-02-02T20:54:07.475Z,45
2019-02-02T20:59:09.895Z,42
2019-02-02T21:04:12.360Z,43
2019-02-02T21:09:14.824Z,41
2019-02-02T21:14:17.404Z,37
2019-02-02T21:19:19.720Z,35
2019-02-02T21:24:22.177Z,33
2019-02-02T21:29:24.641Z,35
2019-02-02T21:34:27.098Z,31
2019-02-02T21:39:29.583Z,37
2019-02-02T21:44:42.565Z,34
2019-02-02T21:49:34.471Z,41
2019-02-02T21:54:36.951Z,40
2019-02-02T21:59:39.405Z,35
2019-02-02T22:04:41.840Z,32
2019-02-02T22:09:44.363Z,32
2019-02-02T22:14:46.803Z,35
2019-02-02T22:19:49.208Z,34
2019-02-02T22:24:51.685Z,38
2019-02-02T22:29:54.192Z,36
2019-02-02T22:34:58.963Z,39
2019-02-02T22:39:59.047Z,41
2019-02-02T22:45:01.534Z,48
2019-02-02T22:50:03.982Z,57
2019-02-02T22:55:06.441Z,51
2019-02-02T23:00:08.932Z,53
2019-02-02T23:05:11.370Z,52
2019-02-02T23:10:13.835Z,42
2019-02-02T23:15:16.309Z,39
2019-02-02T23:20:18.727Z,39
2019-02-02T23:25:21.196Z,40
2019-02-02T23:30:23.669Z,40
2019-02-02T23:35:26.126Z,39
2019-02-02T23:40:28.708Z,40
2019-02-02T23:45:31.074Z,37
2019-02-02T23:50:33.514Z,32
2019-02-02T23:55:36.277Z,35
